Time;durP1;ratioP1;P1;durP2;ratioP2;P2;SDS_P1;SDS_P2;PMS_P1;PMS_P2;Temp;Humidity;BMP_temperature;BMP_pressure;BME280_temperature;BME280_humidity;BME280_pressure;Samples;Min_cycle;Max_cycle;Signal;HPM_P1;HPM_P2
2022/11/30 00:00:32;;;;;;;1999.90;999.90;;;;;;;3.04;100.00;98202.47;5051998;28;20009;-75
2022/11/30 00:02:57;;;;;;;1999.90;999.90;;;;;;;3.04;100.00;98211.41;5051855;28;20485;-76
2022/11/30 00:05:23;;;;;;;1999.90;999.90;;;;;;;3.01;100.00;98194.88;5051635;28;20120;-75
2022/11/30 00:07:49;;;;;;;1999.90;999.90;;;;;;;2.95;100.00;98204.75;5051581;28;20033;-75
2022/11/30 00:10:15;;;;;;;1999.90;999.90;;;;;;;2.98;100.00;98203.44;5051646;28;20488;-76
2022/11/30 00:12:43;;;;;;;1999.90;999.90;;;;;;;2.96;100.00;98192.91;5051431;28;20473;-75
2022/11/30 00:15:13;;;;;;;1999.90;999.90;;;;;;;3.01;100.00;98211.06;5051963;28;20021;-76
2022/11/30 00:17:45;;;;;;;1999.90;999.90;;;;;;;2.99;100.00;98203.22;5051444;28;20039;-75
2022/11/30 00:20:12;;;;;;;1999.90;999.90;;;;;;;3.06;100.00;98201.22;5051314;28;20033;-75
2022/11/30 00:22:38;;;;;;;1999.90;999.90;;;;;;;3.01;100.00;98206.50;5051387;28;20385;-75
2022/11/30 00:25:03;;;;;;;1999.90;999.90;;;;;;;3.00;100.00;98202.16;5050779;28;20037;-75
2022/11/30 00:27:30;;;;;;;1999.90;999.90;;;;;;;3.03;100.00;98208.97;5051796;28;20021;-76
2022/11/30 00:29:56;;;;;;;1999.90;999.90;;;;;;;3.02;100.00;98208.16;5051750;28;20115;-74
2022/11/30 00:32:21;;;;;;;1999.90;999.90;;;;;;;3.03;100.00;98203.56;5051261;28;20085;-74
2022/11/30 00:34:47;;;;;;;1999.90;999.90;;;;;;;2.98;100.00;98212.38;5051788;28;20127;-75
2022/11/30 00:37:13;;;;;;;1999.90;999.90;;;;;;;2.92;100.00;98205.22;5051652;28;20028;-75
2022/11/30 00:39:39;;;;;;;1999.90;999.90;;;;;;;3.00;100.00;98212.16;5051437;28;20040;-74
2022/11/30 00:42:04;;;;;;;1999.90;999.90;;;;;;;2.92;100.00;98209.81;5051488;28;20093;-73
2022/11/30 00:44:29;;;;;;;1999.90;999.90;;;;;;;2.90;100.00;98218.16;5051988;28;20032;-75
2022/11/30 00:46:55;;;;;;;1999.90;999.90;;;;;;;2.92;100.00;98207.94;5050861;28;20025;-77
2022/11/30 00:49:20;;;;;;;1999.90;999.90;;;;;;;2.96;100.00;98228.03;5051139;28;20041;-77
2022/11/30 00:51:45;;;;;;;1999.90;999.90;;;;;;;2.99;100.00;98232.94;5051467;28;20108;-74
2022/11/30 00:54:11;;;;;;;1999.90;999.90;;;;;;;2.98;100.00;98225.88;5051209;28;20057;-76
2022/11/30 00:56:36;;;;;;;1999.90;999.90;;;;;;;2.99;100.00;98224.84;5051132;28;20032;-75
2022/11/30 00:59:01;;;;;;;1999.90;999.90;;;;;;;3.04;100.00;98230.31;5051430;28;20401;-75
2022/11/30 01:01:27;;;;;;;1999.90;999.90;;;;;;;3.01;100.00;98235.38;5051065;28;20355;-74
2022/11/30 01:03:52;;;;;;;1999.90;999.90;;;;;;;2.97;100.00;98237.78;5050825;28;20508;-74
2022/11/30 01:06:17;;;;;;;1999.90;999.90;;;;;;;3.02;100.00;98234.34;5051040;28;20032;-76
2022/11/30 01:08:43;;;;;;;1999.90;999.90;;;;;;;3.00;100.00;98233.75;5050911;28;20548;-76
2022/11/30 01:11:15;;;;;;;1999.90;999.90;;;;;;;3.01;100.00;98219.19;5051024;28;20025;-76
2022/11/30 01:13:40;;;;;;;1999.90;999.90;;;;;;;3.05;100.00;98233.84;5051647;28;20056;-76
2022/11/30 01:16:11;;;;;;;1999.90;999.90;;;;;;;3.13;100.00;98233.50;5056219;28;20061;-74
2022/11/30 01:18:37;;;;;;;1999.90;999.90;;;;;;;3.13;100.00;98239.69;5056501;28;20087;-75
2022/11/30 01:21:15;;;;;;;1999.90;999.90;;;;;;;3.16;100.00;98233.00;5053996;28;20029;-75
2022/11/30 01:23:40;;;;;;;1999.90;999.90;;;;;;;3.18;100.00;98220.88;5050838;28;20036;-73
2022/11/30 01:26:07;;;;;;;1999.90;999.90;;;;;;;3.19;100.00;98222.53;5050918;28;20029;-76
2022/11/30 01:28:33;;;;;;;1999.90;999.90;;;;;;;3.25;100.00;98228.84;5050631;28;20025;-76
2022/11/30 01:31:00;;;;;;;1999.90;999.90;;;;;;;3.20;100.00;98234.97;5050631;28;20430;-74
2022/11/30 01:33:26;;;;;;;1999.90;999.90;;;;;;;3.21;100.00;98228.50;5050597;28;20032;-74
2022/11/30 01:36:18;;;;;;;1999.90;999.90;;;;;;;3.26;100.00;98237.78;5050543;28;20021;-75
2022/11/30 01:38:54;;;;;;;1999.90;999.90;;;;;;;3.22;100.00;98232.03;5049533;28;20449;-74
2022/11/30 01:41:40;;;;;;;1999.90;999.90;;;;;;;3.23;100.00;98237.19;5050499;28;20025;-77
2022/11/30 01:44:05;;;;;;;;;;;;;;;3.30;100.00;98244.34;5051156;28;20033;-76
2022/11/30 01:46:30;;;;;;;;;;;;;;;3.20;100.00;98228.75;5051169;28;20332;-74
2022/11/30 01:49:05;;;;;;;1999.90;999.90;;;;;;;3.23;100.00;98236.38;5050617;28;19951;-75
2022/11/30 01:51:38;;;;;;;1999.90;999.90;;;;;;;3.23;100.00;98234.47;5050516;28;20044;-75
2022/11/30 01:54:06;;;;;;;1999.90;999.90;;;;;;;3.23;100.00;98233.66;5050745;28;20119;-77
2022/11/30 01:56:31;;;;;;;1999.90;999.90;;;;;;;3.26;100.00;98243.19;5050363;28;20025;-75
2022/11/30 01:58:56;;;;;;;1999.90;999.90;;;;;;;3.26;100.00;98233.19;5050795;28;20441;-73
2022/11/30 02:01:22;;;;;;;1999.90;999.90;;;;;;;3.26;100.00;98226.97;5054587;28;20025;-77
2022/11/30 02:04:11;;;;;;;1999.90;999.90;;;;;;;3.29;100.00;98221.88;5054123;28;20017;-76
2022/11/30 02:06:37;;;;;;;1999.90;999.90;;;;;;;3.28;100.00;98236.47;5054034;28;20037;-76
2022/11/30 02:09:02;;;;;;;1999.90;999.90;;;;;;;3.23;100.00;98233.66;5054391;28;20037;-76
2022/11/30 02:11:28;;;;;;;1999.90;999.90;;;;;;;3.27;100.00;98234.81;5054289;28;20035;-76
2022/11/30 02:14:19;;;;;;;1999.90;999.90;;;;;;;3.30;100.00;98244.34;5054265;28;20040;-76
2022/11/30 02:16:58;;;;;;;1999.90;999.90;;;;;;;3.30;100.00;98236.22;5048883;28;20037;-77
2022/11/30 02:20:08;;;;;;;1999.90;999.90;;;;;;;3.26;100.00;98226.97;5054297;28;20061;-78
2022/11/30 02:23:01;;;;;;;1999.90;999.90;;;;;;;3.33;100.00;98228.44;5037648;28;20045;-76
2022/11/30 02:25:45;;;;;;;1999.90;999.90;;;;;;;3.31;100.00;98232.47;5052605;28;20171;-75
2022/11/30 02:28:50;;;;;;;1999.90;999.90;;;;;;;3.29;100.00;98226.50;5053978;28;20037;-76
2022/11/30 02:31:22;;;;;;;1999.90;999.90;;;;;;;3.31;100.00;98229.75;5052566;28;20119;-75
2022/11/30 02:33:51;;;;;;;1999.90;999.90;;;;;;;3.38;100.00;98227.75;5053935;28;20025;-76
2022/11/30 02:36:18;;;;;;;1999.90;999.90;;;;;;;3.40;100.00;98225.59;5052497;28;20075;-75
2022/11/30 02:38:45;;;;;;;1999.90;999.90;;;;;;;3.38;100.00;98222.34;5053908;28;20492;-74
2022/11/30 02:41:10;;;;;;;1999.90;999.90;;;;;;;3.43;100.00;98215.13;5054251;28;20103;-74
2022/11/30 02:43:36;;;;;;;1999.90;999.90;;;;;;;3.40;100.00;98212.09;5054045;28;20116;-74
2022/11/30 02:46:10;;;;;;;1999.90;999.90;;;;;;;3.47;100.00;98210.06;5054681;28;20375;-74
2022/11/30 02:49:05;;;;;;;1999.90;999.90;;;;;;;3.51;100.00;98208.53;5054324;28;20040;-74
2022/11/30 02:51:35;;;;;;;1999.90;999.90;;;;;;;3.49;100.00;98199.81;5053792;28;20033;-76
2022/11/30 02:54:01;;;;;;;1999.90;999.90;;;;;;;3.51;100.00;98197.69;5052361;28;20036;-74
2022/11/30 02:56:27;;;;;;;1999.90;999.90;;;;;;;3.41;100.00;98181.28;5055924;28;20021;-80
2022/11/30 02:58:52;;;;;;;1999.90;999.90;;;;;;;3.51;100.00;98192.28;5059272;28;20025;-74
2022/11/30 03:01:17;;;;;;;1999.90;999.90;;;;;;;3.51;100.00;98197.69;5053468;28;20091;-76
2022/11/30 03:03:43;;;;;;;1999.90;999.90;;;;;;;3.55;100.00;98194.25;5053340;28;20040;-75
2022/11/30 03:06:09;;;;;;;1999.90;999.90;;;;;;;3.57;100.00;98197.50;5053502;28;20053;-75
2022/11/30 03:08:35;;;;;;;1999.90;999.90;;;;;;;3.58;100.00;98198.34;5053313;28;20041;-74
2022/11/30 03:11:02;;;;;;;1999.90;999.90;;;;;;;3.56;100.00;98189.66;5051708;28;20541;-75
2022/11/30 03:13:28;;;;;;;1999.90;999.90;;;;;;;3.59;100.00;98200.00;5053195;28;20025;-76
2022/11/30 03:15:53;;;;;;;1999.90;999.90;;;;;;;3.59;100.00;98200.00;5051988;28;20094;-74
2022/11/30 03:18:19;;;;;;;1999.90;999.90;;;;;;;3.53;100.00;98196.38;5053333;28;20785;-75
2022/11/30 03:20:44;;;;;;;1999.90;999.90;;;;;;;3.44;100.00;98189.75;5053349;28;20798;-74
2022/11/30 03:23:10;;;;;;;1999.90;999.90;;;;;;;3.57;100.00;98202.94;5056178;28;20033;-76
2022/11/30 03:25:35;;;;;;;1999.90;999.90;;;;;;;3.54;100.00;98202.63;5056885;28;20065;-73
2022/11/30 03:28:01;;;;;;;1999.90;999.90;;;;;;;3.62;100.00;98205.72;5053254;28;20115;-73
2022/11/30 03:30:26;;;;;;;1999.90;999.90;;;;;;;3.63;100.00;98201.94;5052965;28;20481;-75
2022/11/30 03:32:52;;;;;;;1999.90;999.90;;;;;;;3.62;100.00;98204.91;5052949;28;20162;-74
2022/11/30 03:35:17;;;;;;;1999.90;999.90;;;;;;;3.63;100.00;98203.84;5051349;28;20420;-76
2022/11/30 03:37:43;;;;;;;1999.90;999.90;;;;;;;3.60;100.00;98185.41;5051691;28;20033;-76
2022/11/30 03:40:10;;;;;;;1999.90;999.90;;;;;;;3.65;100.00;98204.41;5052690;28;20108;-76
2022/11/30 03:42:35;;;;;;;1999.90;999.90;;;;;;;3.61;100.00;98197.84;5052708;28;20064;-74
2022/11/30 03:45:01;;;;;;;1999.90;999.90;;;;;;;3.65;100.00;98207.13;5052582;28;20056;-74
2022/11/30 03:47:26;;;;;;;1999.90;999.90;;;;;;;3.65;100.00;98194.44;5053434;28;20029;-76
2022/11/30 03:49:51;;;;;;;1999.90;999.90;;;;;;;3.64;100.00;98205.47;5052957;28;20025;-75
2022/11/30 03:52:17;;;;;;;1999.90;999.90;;;;;;;3.67;100.00;98202.28;5053897;28;20027;-74
2022/11/30 03:54:42;;;;;;;1999.90;999.90;;;;;;;3.62;100.00;98194.91;5053169;28;20025;-76
2022/11/30 03:57:07;;;;;;;1999.90;999.90;;;;;;;3.66;100.00;98195.25;5054505;28;20036;-74
2022/11/30 03:59:33;;;;;;;1999.90;999.90;;;;;;;3.69;100.00;98198.28;5052851;28;20032;-74
2022/11/30 04:01:58;;;;;;;1999.90;999.90;;;;;;;3.74;100.00;98197.53;5052498;28;20071;-76
2022/11/30 04:04:23;;;;;;;1999.90;999.90;;;;;;;3.70;100.00;98199.09;5052261;28;20567;-76
2022/11/30 04:06:49;;;;;;;1999.90;999.90;;;;;;;3.67;100.00;98191.47;5052273;28;20547;-74
2022/11/30 04:09:14;;;;;;;1999.90;999.90;;;;;;;3.69;100.00;98194.75;5050820;28;20037;-74
2022/11/30 04:11:39;;;;;;;1999.90;999.90;;;;;;;3.65;100.00;98185.50;5052230;28;21482;-74
2022/11/30 04:14:05;;;;;;;1999.90;999.90;;;;;;;3.73;100.00;98188.59;5050713;28;20052;-76
2022/11/30 04:16:30;;;;;;;1999.90;999.90;;;;;;;3.72;100.00;98188.84;5052455;28;20043;-75
2022/11/30 04:18:55;;;;;;;1999.90;999.90;;;;;;;3.73;100.00;98204.00;5051976;28;20021;-77
2022/11/30 04:21:21;;;;;;;1999.90;999.90;;;;;;;3.69;100.00;98194.75;5051937;28;20103;-75
2022/11/30 04:23:46;;;;;;;1999.90;999.90;;;;;;;3.58;100.00;98193.75;5051792;28;20435;-75
2022/11/30 04:26:13;;;;;;;1999.90;999.90;;;;;;;3.67;100.00;98203.09;5051970;28;20057;-75
2022/11/30 04:28:39;;;;;;;1999.90;999.90;;;;;;;3.65;100.00;98210.66;5051957;28;20025;-75
2022/11/30 04:31:05;;;;;;;1999.90;999.90;;;;;;;3.69;100.00;98194.75;5051709;28;20055;-75
2022/11/30 04:33:31;;;;;;;1999.90;999.90;;;;;;;3.70;100.00;98201.78;5051969;28;20029;-76
2022/11/30 04:35:59;;;;;;;1999.90;999.90;;;;;;;3.69;100.00;98198.28;5056024;28;20074;-77
2022/11/30 04:38:25;;;;;;;1999.90;999.90;;;;;;;3.75;100.00;98200.00;5056786;28;20040;-77
2022/11/30 04:40:51;;;;;;;1999.90;999.90;;;;;;;3.66;100.00;98187.97;5051747;28;20032;-75
2022/11/30 04:43:16;;;;;;;1999.90;999.90;;;;;;;3.68;100.00;98183.13;5051693;28;20541;-75
2022/11/30 04:45:43;;;;;;;1999.90;999.90;;;;;;;3.66;100.00;98179.84;5051426;28;20394;-76
2022/11/30 04:48:08;;;;;;;1999.90;999.90;;;;;;;3.73;100.00;98190.47;5051761;28;20036;-74
2022/11/30 04:50:34;;;;;;;1999.90;999.90;;;;;;;3.71;100.00;98189.91;5049995;28;20036;-75
2022/11/30 04:52:59;;;;;;;1999.90;999.90;;;;;;;3.73;100.00;98198.59;5051361;28;20029;-76
2022/11/30 04:55:25;;;;;;;1999.90;999.90;;;;;;;3.74;100.00;98200.25;5051218;28;20113;-76
2022/11/30 04:57:51;;;;;;;1999.90;999.90;;;;;;;3.74;100.00;98198.38;5051247;28;20029;-75
2022/11/30 05:00:17;;;;;;;1999.90;999.90;;;;;;;3.71;100.00;98200.72;5051139;28;20500;-75
2022/11/30 05:02:43;;;;;;;1999.90;999.90;;;;;;;3.65;100.00;98196.31;5051204;28;20027;-75
2022/11/30 05:05:09;;;;;;;1999.90;999.90;;;;;;;3.75;100.00;98204.59;5040253;28;20118;-74
2022/11/30 05:07:34;;;;;;;1999.90;999.90;;;;;;;3.74;100.00;98198.38;5047151;28;20116;-75
2022/11/30 05:10:01;;;;;;;1999.90;999.90;;;;;;;3.83;100.00;98201.47;5047127;28;20080;-75
2022/11/30 05:12:27;;;;;;;1999.90;999.90;;;;;;;3.83;100.00;98204.19;5030974;28;20048;-75
2022/11/30 05:14:52;;;;;;;1999.90;999.90;;;;;;;3.81;100.00;98200.91;5030653;28;20037;-75
2022/11/30 05:17:17;;;;;;;1999.90;999.90;;;;;;;3.75;100.00;98193.78;5030202;28;20033;-76
2022/11/30 05:19:43;;;;;;;1999.90;999.90;;;;;;;3.78;100.00;98204.09;5062657;28;20025;-78
2022/11/30 05:22:08;;;;;;;1999.90;999.90;;;;;;;3.74;100.00;98198.38;5033499;28;20020;-76
2022/11/30 05:24:33;;;;;;;1999.90;999.90;;;;;;;3.76;100.00;98206.22;5050583;28;20112;-75
2022/11/30 05:26:59;;;;;;;1999.90;999.90;;;;;;;3.77;100.00;98211.41;5050593;28;20436;-76
2022/11/30 05:29:24;;;;;;;1999.90;999.90;;;;;;;3.69;100.00;98211.00;5049553;28;20535;-76
2022/11/30 05:31:49;;;;;;;1999.90;999.90;;;;;;;3.65;100.00;98215.25;5054406;28;20044;-76
2022/11/30 05:34:15;;;;;;;1999.90;999.90;;;;;;;3.65;100.00;98215.25;5056427;28;20040;-75
2022/11/30 05:36:40;;;;;;;1999.90;999.90;;;;;;;3.59;100.00;98221.63;5050532;28;20033;-76
2022/11/30 05:39:06;;;;;;;1999.90;999.90;;;;;;;3.46;100.00;98219.22;5049095;28;20405;-76
2022/11/30 05:41:31;;;;;;;1999.90;999.90;;;;;;;3.31;100.00;98225.19;5050255;28;20025;-76
2022/11/30 05:43:57;;;;;;;1999.90;999.90;;;;;;;3.36;100.00;98222.56;5050071;28;20044;-74
2022/11/30 05:46:22;;;;;;;1999.90;999.90;;;;;;;3.34;100.00;98218.47;5050448;28;20038;-77
2022/11/30 05:48:48;;;;;;;1999.90;999.90;;;;;;;3.41;100.00;98225.38;5050578;28;20512;-77
2022/11/30 05:51:16;;;;;;;1999.90;999.90;;;;;;;3.39;100.00;98219.38;5049431;28;20057;-77
2022/11/30 05:53:42;;;;;;;1999.90;999.90;;;;;;;3.37;100.00;98220.69;5050206;28;20063;-77
2022/11/30 05:56:10;;;;;;;1999.90;999.90;;;;;;;3.42;100.00;98221.59;5054661;28;20066;-76
2022/11/30 05:58:36;;;;;;;1999.90;999.90;;;;;;;3.34;100.00;98224.69;5048294;28;20386;-77
2022/11/30 06:01:01;;;;;;;1999.90;999.90;;;;;;;3.22;100.00;98216.66;5031867;28;20022;-81
2022/11/30 06:03:29;;;;;;;1999.90;999.90;;;;;;;3.25;100.00;98220.75;5040241;28;20033;-84
2022/11/30 06:05:55;;;;;;;1999.90;999.90;;;;;;;3.39;100.00;98237.47;5041468;28;20052;-82
2022/11/30 06:08:20;;;;;;;1999.90;999.90;;;;;;;3.41;100.00;98224.56;5069261;28;20489;-76
2022/11/30 06:10:46;;;;;;;1999.90;999.90;;;;;;;3.36;100.00;98227.97;5030559;28;20044;-76
2022/11/30 06:13:12;;;;;;;1999.90;999.90;;;;;;;3.37;100.00;98228.78;5031255;28;20034;-76
2022/11/30 06:15:38;;;;;;;1999.90;999.90;;;;;;;3.31;100.00;98216.25;5036059;28;20060;-77
2022/11/30 06:18:05;;;;;;;1999.90;999.90;;;;;;;3.37;100.00;98226.09;5032845;28;20056;-76
2022/11/30 06:20:30;;;;;;;1999.90;999.90;;;;;;;3.51;100.00;98230.16;5031173;28;20378;-76
2022/11/30 06:22:57;;;;;;;1999.90;999.90;;;;;;;3.53;100.00;98231.53;5042031;28;20020;-77
2022/11/30 06:25:23;;;;;;;1999.90;999.90;;;;;;;3.49;100.00;98232.25;5049727;28;20095;-79
2022/11/30 06:27:48;;;;;;;1999.90;999.90;;;;;;;3.36;100.00;98219.84;5048631;28;20029;-75
2022/11/30 06:30:14;;;;;;;1999.90;999.90;;;;;;;3.50;100.00;98236.59;5050121;28;20039;-80
2022/11/30 06:32:42;;;;;;;1999.90;999.90;;;;;;;3.50;100.00;98242.00;5051742;28;20036;-79
2022/11/30 06:35:08;;;;;;;1999.90;999.90;;;;;;;3.45;100.00;98234.63;5055210;28;20029;-84
2022/11/30 06:37:34;;;;;;;1999.90;999.90;;;;;;;3.37;100.00;98223.38;5058603;28;20366;-85
2022/11/30 06:39:59;;;;;;;1999.90;999.90;;;;;;;3.40;100.00;98236.41;5055660;28;20021;-81
2022/11/30 06:42:29;;;;;;;1999.90;999.90;;;;;;;3.38;100.00;98236.69;5050374;28;20451;-84
2022/11/30 06:44:54;;;;;;;1999.90;999.90;;;;;;;3.52;100.00;98248.81;5054168;28;20398;-80
2022/11/30 06:47:19;;;;;;;1999.90;999.90;;;;;;;3.47;100.00;98240.63;5050605;28;20021;-77
2022/11/30 06:49:45;;;;;;;1999.90;999.90;;;;;;;3.60;100.00;98255.72;5049047;28;20029;-80
2022/11/30 06:52:10;;;;;;;1999.90;999.90;;;;;;;3.56;100.00;98249.97;5051115;28;20033;-78
2022/11/30 06:54:35;;;;;;;1999.90;999.90;;;;;;;3.63;100.00;98255.25;5050881;28;20037;-79
2022/11/30 06:57:01;;;;;;;1999.90;999.90;;;;;;;3.61;100.00;98262.75;5052209;28;20025;-78
2022/11/30 06:59:26;;;;;;;1999.90;999.90;;;;;;;3.68;100.00;98258.03;5053116;28;20017;-78
2022/11/30 07:01:51;;;;;;;1999.90;999.90;;;;;;;3.72;100.00;98272.72;5051603;28;20036;-80
2022/11/30 07:04:17;;;;;;;1999.90;999.90;;;;;;;3.67;100.00;98256.38;5052368;28;20045;-77
2022/11/30 07:06:42;;;;;;;1999.90;999.90;;;;;;;3.49;100.00;98259.28;5051314;28;20501;-78
2022/11/30 07:09:09;;;;;;;1999.90;999.90;;;;;;;3.53;100.00;98266.69;5052913;28;20032;-79
2022/11/30 07:11:34;;;;;;;1999.90;999.90;;;;;;;3.58;100.00;98263.25;5052099;28;20040;-77
2022/11/30 07:14:00;;;;;;;1999.90;999.90;;;;;;;3.57;100.00;98261.63;5052698;28;20025;-77
2022/11/30 07:16:25;;;;;;;1999.90;999.90;;;;;;;3.63;100.00;98257.94;5052459;28;20059;-80
2022/11/30 07:18:50;;;;;;;1999.90;999.90;;;;;;;3.70;100.00;98266.69;5053281;28;20456;-79
2022/11/30 07:21:15;;;;;;;1999.90;999.90;;;;;;;3.74;100.00;98257.03;5053815;28;20032;-80
2022/11/30 07:26:26;;;;;;;1999.90;999.90;;;;;;;3.85;100.00;98258.88;5055650;28;20401;-80
2022/11/30 07:28:57;;;;;;;1999.90;999.90;;;;;;;3.86;100.00;98256.97;5054479;28;20036;-77
2022/11/30 07:31:24;;;;;;;1999.90;999.90;;;;;;;3.87;100.00;98255.91;5052932;28;20025;-80
2022/11/30 07:33:49;;;;;;;1999.90;999.90;;;;;;;3.87;100.00;98256.72;5057554;28;20021;-77
2022/11/30 07:36:16;;;;;;;1999.90;999.90;;;;;;;3.87;100.00;98255.91;5054541;28;20036;-78
2022/11/30 07:38:42;;;;;;;1999.90;999.90;;;;;;;3.90;100.00;98252.72;5055808;28;20041;-81
2022/11/30 07:41:08;;;;;;;1999.90;999.90;;;;;;;3.87;100.00;98259.44;5059529;28;20017;-82
2022/11/30 07:43:33;;;;;;;1999.90;999.90;;;;;;;3.86;100.00;98255.09;5055492;28;20473;-78
2022/11/30 07:45:59;;;;;;;1999.90;999.90;;;;;;;3.91;100.00;98262.47;5054949;28;20032;-83
2022/11/30 07:48:25;;;;;;;1999.90;999.90;;;;;;;3.88;100.00;98252.97;5056155;28;20110;-82
2022/11/30 07:50:50;;;;;;;1999.90;999.90;;;;;;;3.91;100.00;98255.19;5057708;28;20036;-82
2022/11/30 07:53:16;;;;;;;1999.90;999.90;;;;;;;3.89;100.00;98249.19;5056851;28;20469;-80
2022/11/30 07:55:41;;;;;;;1999.90;999.90;;;;;;;3.90;100.00;98250.84;5056684;28;20037;-80
2022/11/30 07:58:08;;;;;;;1999.90;999.90;;;;;;;4.00;100.00;98261.84;5056357;28;20104;-82
2022/11/30 08:00:38;;;;;;;1999.90;999.90;;;;;;;3.94;100.00;98246.59;5056858;28;20025;-84
2022/11/30 08:03:03;;;;;;;1999.90;999.90;;;;;;;4.06;100.00;98250.03;5060430;28;20029;-84
2022/11/30 08:05:29;;;;;;;1999.90;999.90;;;;;;;4.04;100.00;98249.44;5058022;28;20040;-78
2022/11/30 08:07:54;;;;;;;1999.90;999.90;;;;;;;4.11;100.00;98250.09;5054542;28;20036;-79
2022/11/30 08:10:20;;;;;;;1999.90;999.90;;;;;;;4.22;100.00;98253.78;5054778;28;20022;-83
2022/11/30 08:12:46;;;;;;;1999.90;999.90;;;;;;;4.37;100.00;98239.66;5056740;28;20029;-82
2022/11/30 08:15:12;;;;;;;1999.90;999.90;;;;;;;4.35;100.00;98241.78;5057098;28;20138;-83
2022/11/30 08:17:38;;;;;;;1999.90;999.90;;;;;;;4.27;100.00;98243.84;5058356;28;20037;-84
2022/11/30 08:20:05;;;;;;;1999.90;999.90;;;;;;;4.28;100.00;98258.22;5060860;28;20044;-83
2022/11/30 08:22:31;;;;;;;1999.90;999.90;;;;;;;4.47;100.00;98256.06;5059405;28;20033;-83
2022/11/30 08:24:56;;;;;;;1999.90;999.90;;;;;;;4.58;100.00;98257.81;5055754;28;20037;-81
2022/11/30 08:27:22;;;;;;;1999.90;999.90;;;;;;;4.58;100.00;98252.41;5057703;28;20161;-84
2022/11/30 08:29:47;;;;;;;1999.90;999.90;;;;;;;4.55;100.00;98263.75;5056592;28;20036;-86
2022/11/30 08:32:12;;;;;;;1999.90;999.90;;;;;;;4.48;100.00;98260.41;5056679;28;20029;-84
2022/11/30 08:34:38;;;;;;;1999.90;999.90;;;;;;;4.60;100.00;98267.38;5056741;28;20021;-81
2022/11/30 08:37:03;;;;;;;1999.90;999.90;;;;;;;4.52;100.00;98253.41;5054876;28;20499;-85
2022/11/30 08:39:30;;;;;;;1999.90;999.90;;;;;;;4.65;100.00;98264.72;5056697;28;20025;-85
2022/11/30 08:41:56;;;;;;;1999.90;999.90;;;;;;;4.61;100.00;98266.28;5058013;28;20025;-84
2022/11/30 08:44:21;;;;;;;1999.90;999.90;;;;;;;4.59;100.00;98264.88;5059198;28;20473;-87
2022/11/30 08:46:47;;;;;;;1999.90;999.90;;;;;;;4.58;100.00;98265.94;5059200;28;20032;-86
2022/11/30 08:49:12;;;;;;;1999.90;999.90;;;;;;;4.67;100.00;98272.56;5056778;28;20035;-81
2022/11/30 08:51:37;;;;;;;1999.90;999.90;;;;;;;4.71;100.00;98276.44;5058887;28;20474;-85
2022/11/30 08:54:03;;;;;;;1999.90;999.90;;;;;;;4.79;100.00;98273.31;5056604;28;20040;-88
2022/11/30 08:56:29;;;;;;;1999.90;999.90;;;;;;;4.88;100.00;98269.09;5053148;28;20032;-82
2022/11/30 08:58:54;;;;;;;1999.90;999.90;;;;;;;4.95;100.00;98280.56;5055870;28;20029;-86
2022/11/30 09:01:25;;;;;;;1999.90;999.90;;;;;;;4.84;100.00;98270.66;5055276;28;20010;-85
2022/11/30 09:03:53;;;;;;;1999.90;999.90;;;;;;;4.80;100.00;98283.06;5052700;28;20032;-84
2022/11/30 09:06:23;;;;;;;1999.90;999.90;;;;;;;4.88;100.00;98274.53;5056103;28;20021;-82
2022/11/30 09:08:51;;;;;;;1999.90;999.90;;;;;;;4.85;100.00;98280.44;5057798;28;20040;-83
2022/11/30 09:11:22;;;;;;;1999.90;999.90;;;;;;;4.93;100.00;98271.88;5059401;28;20028;-88
2022/11/30 09:13:49;;;;;;;1999.90;999.90;;;;;;;4.89;100.00;98278.06;5057393;28;20040;-87
2022/11/30 09:16:16;;;;;;;1999.90;999.90;;;;;;;4.99;100.00;98279.00;5055250;28;20051;-84
2022/11/30 09:18:42;;;;;;;1999.90;999.90;;;;;;;4.87;100.00;98272.88;5056027;28;20021;-82
2022/11/30 09:21:10;;;;;;;1999.90;999.90;;;;;;;4.83;100.00;98269.84;5055379;28;20722;-78
2022/11/30 09:23:36;;;;;;;1999.90;999.90;;;;;;;4.91;100.00;98279.44;5058272;28;20052;-84
2022/11/30 09:26:04;;;;;;;1999.90;999.90;;;;;;;4.88;100.00;98273.69;5058754;28;20051;-84
2022/11/30 09:28:30;;;;;;;1999.90;999.90;;;;;;;4.73;100.00;98271.59;5059069;28;20056;-86
2022/11/30 09:31:00;;;;;;;1999.90;999.90;;;;;;;4.93;100.00;98269.16;5060994;28;20021;-82
2022/11/30 09:33:26;;;;;;;1999.90;999.90;;;;;;;4.97;100.00;98273.00;5062567;28;20025;-87
2022/11/30 09:35:59;;;;;;;1999.90;999.90;;;;;;;4.97;100.00;98272.19;5055573;28;20035;-91
2022/11/30 09:38:25;;;;;;;1999.90;999.90;;;;;;;4.97;100.00;98277.59;5059344;28;20035;-86
2022/11/30 09:40:55;;;;;;;1999.90;999.90;;;;;;;4.93;100.00;98266.44;5060157;28;20111;-87
2022/11/30 09:43:23;;;;;;;1999.90;999.90;;;;;;;4.88;100.00;98269.09;5059982;28;20048;-83
2022/11/30 09:45:55;;;;;;;1999.90;999.90;;;;;;;4.80;100.00;98269.50;5057038;28;20106;-84
2022/11/30 09:48:32;;;;;;;1999.90;999.90;;;;;;;4.72;100.00;98269.97;5063167;28;20033;-83
2022/11/30 09:51:05;;;;;;;1999.90;999.90;;;;;;;4.70;100.00;98263.94;5057420;28;20064;-84
2022/11/30 09:53:44;;;;;;;1999.90;999.90;;;;;;;4.71;100.00;98262.88;5039123;28;20053;-76
2022/11/30 09:56:33;;;;;;;1999.90;999.90;;;;;;;4.73;100.00;98269.69;5054328;28;20528;-83
2022/11/30 09:59:07;;;;;;;1999.90;999.90;;;;;;;4.69;100.00;98271.28;5057432;28;20025;-83
2022/11/30 10:01:35;;;;;;;1999.90;999.90;;;;;;;4.69;100.00;98267.75;5059928;28;20025;-84
2022/11/30 10:04:01;;;;;;;1999.90;999.90;;;;;;;4.76;100.00;98271.09;5058845;28;20021;-82
2022/11/30 10:06:55;;;;;;;1999.90;999.90;;;;;;;4.78;100.00;98268.97;5058092;28;20031;-84
2022/11/30 10:09:40;;;;;;;1999.90;999.90;;;;;;;4.81;100.00;98266.56;5026158;28;20041;-81
2022/11/30 10:12:22;;;;;;;1999.90;999.90;;;;;;;4.84;100.00;98273.38;5070403;28;20025;-85
2022/11/30 10:15:06;;;;;;;1999.90;999.90;;;;;;;4.81;100.00;98274.69;5070000;28;20028;-85
2022/11/30 10:17:46;;;;;;;1999.90;999.90;;;;;;;4.80;100.00;98267.63;5069239;28;20025;-85
2022/11/30 10:20:32;;;;;;;1999.90;999.90;;;;;;;4.65;100.00;98272.03;5059962;28;20029;-82
2022/11/30 10:23:33;;;;;;;1999.90;999.90;;;;;;;4.65;100.00;98270.13;5058981;28;20068;-84
2022/11/30 10:26:13;;;;;;;1999.90;999.90;;;;;;;4.62;100.00;98264.38;5054048;28;20104;-83
2022/11/30 10:28:46;;;;;;;1999.90;999.90;;;;;;;4.60;100.00;98259.25;5036204;28;20037;-82
2022/11/30 10:31:12;;;;;;;1999.90;999.90;;;;;;;4.50;100.00;98261.78;5042052;28;20045;-84
2022/11/30 10:33:50;;;;;;;1999.90;999.90;;;;;;;4.52;100.00;98259.66;5042355;28;20021;-83
2022/11/30 10:36:34;;;;;;;1999.90;999.90;;;;;;;4.53;100.00;98257.75;5043615;28;20025;-81
2022/11/30 10:39:03;;;;;;;1999.90;999.90;;;;;;;4.44;100.00;98257.38;5042430;28;20025;-82
2022/11/30 10:41:42;;;;;;;1999.90;999.90;;;;;;;4.48;100.00;98249.56;5042027;28;20022;-85
2022/11/30 10:44:23;;;;;;;1999.90;999.90;;;;;;;4.60;100.00;98244.88;5042659;28;20083;-81
2022/11/30 10:47:00;;;;;;;1999.90;999.90;;;;;;;4.66;100.00;98244.69;5040067;28;20017;-85
2022/11/30 10:49:28;;;;;;;1999.90;999.90;;;;;;;4.58;100.00;98253.22;5036681;28;20025;-84
2022/11/30 10:52:00;;;;;;;1999.90;999.90;;;;;;;4.67;100.00;98240.91;5039691;28;20029;-86
2022/11/30 10:54:25;;;;;;;1999.90;999.90;;;;;;;4.61;100.00;98241.06;5040983;28;20478;-82
2022/11/30 10:56:51;;;;;;;1999.90;999.90;;;;;;;4.70;100.00;98253.13;5040182;28;20036;-86
2022/11/30 10:59:47;;;;;;;1999.90;999.90;;;;;;;4.58;100.00;98247.00;5038013;28;20028;-83
2022/11/30 11:02:38;;;;;;;1999.90;999.90;;;;;;;4.57;100.00;98248.91;5038037;28;20044;-83